createdAt,value
2023-03-26T00:01:36.500Z,24.85
2023-03-26T00:04:07.313Z,22.08
2023-03-26T00:06:39.959Z,24.70
2023-03-26T00:09:13.235Z,21.00
2023-03-26T00:11:41.791Z,20.67
2023-03-26T00:14:14.143Z,20.58
2023-03-26T00:16:44.359Z,18.50
2023-03-26T00:19:12.646Z,24.65
2023-03-26T00:21:40.028Z,16.50
2023-03-26T00:24:17.405Z,26.65
2023-03-26T00:26:48.450Z,22.90
2023-03-26T00:29:15.581Z,21.48
2023-03-26T00:31:45.973Z,27.85
2023-03-26T00:34:15.592Z,20.80
2023-03-26T00:36:43.913Z,27.83
2023-03-26T00:39:11.049Z,20.35
2023-03-26T00:41:43.110Z,22.05
2023-03-26T00:44:11.416Z,21.40
2023-03-26T00:46:38.656Z,21.88
2023-03-26T00:49:05.801Z,31.90
2023-03-26T00:51:34.006Z,27.17
2023-03-26T00:54:01.491Z,30.92
2023-03-26T00:56:28.453Z,25.80
2023-03-26T00:58:55.448Z,23.30
2023-03-26T01:01:27.207Z,27.23
2023-03-26T01:04:19.351Z,24.40
2023-03-26T01:06:46.917Z,24.40
2023-03-26T01:09:19.661Z,29.45
2023-03-26T01:11:49.542Z,27.15
2023-03-26T01:14:23.535Z,29.10
2023-03-26T01:16:59.246Z,28.63
2023-03-26T01:19:39.917Z,30.27
2023-03-26T01:22:13.203Z,26.60
2023-03-26T01:24:41.545Z,22.30
2023-03-26T01:27:41.115Z,28.23
2023-03-26T01:30:30.952Z,35.95
2023-03-26T01:33:29.899Z,30.77
2023-03-26T01:36:25.816Z,23.63
2023-03-26T01:39:31.636Z,28.35
2023-03-26T01:42:09.220Z,29.52
2023-03-26T01:44:51.564Z,29.83
2023-03-26T01:47:21.048Z,27.98
2023-03-26T01:49:48.669Z,40.90
2023-03-26T01:52:25.183Z,32.28
2023-03-26T01:54:55.625Z,32.90
2023-03-26T01:58:19.263Z,30.90
2023-03-26T02:01:06.997Z,33.17
2023-03-26T02:03:50.759Z,30.58
2023-03-26T02:06:47.929Z,30.73
2023-03-26T02:09:24.029Z,30.48
2023-03-26T02:11:51.459Z,30.00
2023-03-26T02:14:18.729Z,30.25
2023-03-26T02:16:46.849Z,32.90
2023-03-26T02:19:21.449Z,41.65
2023-03-26T02:24:20.645Z,28.17
2023-03-26T02:26:50.889Z,39.95
2023-03-26T02:29:20.546Z,29.95
2023-03-26T02:31:49.329Z,25.27
2023-03-26T02:34:17.152Z,28.20
2023-03-26T02:36:51.701Z,32.05
2023-03-26T02:39:19.216Z,34.90
2023-03-26T02:41:54.596Z,27.80
2023-03-26T02:44:22.070Z,25.33
2023-03-26T02:46:58.224Z,33.92
2023-03-26T02:49:44.554Z,28.77
2023-03-26T02:52:18.584Z,28.25
2023-03-26T02:54:48.438Z,32.35
2023-03-26T02:57:20.767Z,29.65
2023-03-26T02:59:50.686Z,23.33
2023-03-26T03:02:41.267Z,27.45
2023-03-26T03:05:38.148Z,31.15
2023-03-26T03:08:28.253Z,28.33
2023-03-26T03:11:24.773Z,30.98
2023-03-26T03:13:53.173Z,27.67
2023-03-26T03:16:26.768Z,25.77
2023-03-26T03:18:57.813Z,32.22
2023-03-26T03:21:29.724Z,27.80
2023-03-26T03:24:00.302Z,23.60
2023-03-26T03:26:30.041Z,29.73
2023-03-26T03:29:01.033Z,19.60
2023-03-26T03:31:28.518Z,27.20
2023-03-26T03:34:01.482Z,22.33
2023-03-26T03:36:33.383Z,31.42
2023-03-26T03:39:07.265Z,27.42
2023-03-26T03:41:35.496Z,27.48
2023-03-26T03:44:06.159Z,22.73
2023-03-26T03:46:34.241Z,25.35
2023-03-26T03:49:01.703Z,18.23
2023-03-26T03:51:33.084Z,27.70
2023-03-26T03:54:03.562Z,35.30
2023-03-26T03:56:51.118Z,31.90
2023-03-26T03:59:38.499Z,21.48
2023-03-26T04:02:26.260Z,29.40
2023-03-26T04:04:57.976Z,34.30
2023-03-26T04:07:26.408Z,22.48
2023-03-26T04:10:08.886Z,24.35
2023-03-26T04:12:58.881Z,22.95
2023-03-26T04:15:43.349Z,25.13
2023-03-26T04:18:11.758Z,25.45
2023-03-26T04:20:47.476Z,27.52
2023-03-26T04:23:22.565Z,22.92
2023-03-26T04:25:58.301Z,22.80
2023-03-26T04:28:59.784Z,21.77
2023-03-26T04:31:31.083Z,23.17
2023-03-26T04:34:23.494Z,25.83
2023-03-26T04:37:24.872Z,21.05
2023-03-26T04:40:09.469Z,30.13
2023-03-26T04:42:46.380Z,24.75
2023-03-26T04:45:22.858Z,28.48
2023-03-26T04:47:59.828Z,22.10
2023-03-26T04:50:27.295Z,19.52
2023-03-26T04:52:57.327Z,25.27
2023-03-26T04:55:52.577Z,26.50
2023-03-26T04:58:37.111Z,26.60
2023-03-26T05:01:10.374Z,21.88
2023-03-26T05:03:41.436Z,22.90
2023-03-26T05:06:13.554Z,21.67
2023-03-26T05:08:41.880Z,20.83
2023-03-26T05:11:15.809Z,24.27
2023-03-26T05:13:42.986Z,23.20
2023-03-26T05:16:13.446Z,19.30
2023-03-26T05:18:46.853Z,22.17
2023-03-26T05:21:14.640Z,26.70
2023-03-26T05:23:41.711Z,28.98
2023-03-26T05:26:20.311Z,24.85
2023-03-26T05:28:48.052Z,24.35
2023-03-26T05:31:28.006Z,28.00
2023-03-26T05:34:00.479Z,25.92
2023-03-26T05:36:30.667Z,33.70
2023-03-26T05:39:16.056Z,21.48
2023-03-26T05:42:07.804Z,20.98
2023-03-26T05:44:50.273Z,19.63
2023-03-26T05:47:23.434Z,26.35
2023-03-26T05:49:51.544Z,26.35
2023-03-26T05:52:19.123Z,31.88
2023-03-26T05:55:04.942Z,18.40
2023-03-26T05:57:50.386Z,27.30
2023-03-26T06:00:48.536Z,27.85
2023-03-26T06:03:23.421Z,29.67
2023-03-26T06:06:20.480Z,21.45
2023-03-26T06:09:02.104Z,21.98
2023-03-26T06:11:34.314Z,25.48
2023-03-26T06:14:03.484Z,23.90
2023-03-26T06:16:31.510Z,27.67
2023-03-26T06:19:19.414Z,29.02
2023-03-26T06:21:50.394Z,29.70
2023-03-26T06:24:31.711Z,26.52
2023-03-26T06:27:08.412Z,20.92
2023-03-26T06:29:54.718Z,30.25
2023-03-26T06:32:39.525Z,28.98
2023-03-26T06:35:11.380Z,24.45
2023-03-26T06:37:38.460Z,21.13
2023-03-26T06:40:07.474Z,15.85
2023-03-26T06:43:08.050Z,23.30
2023-03-26T06:45:55.547Z,20.80
2023-03-26T06:48:42.291Z,14.73
2023-03-26T06:51:43.497Z,19.08
2023-03-26T06:54:16.697Z,19.95
2023-03-26T06:56:47.700Z,26.63
2023-03-26T06:59:33.477Z,17.98
2023-03-26T07:02:19.308Z,14.60
2023-03-26T07:05:05.233Z,16.92
2023-03-26T07:07:51.054Z,10.95
2023-03-26T07:10:57.039Z,15.63
2023-03-26T07:13:45.941Z,20.88
2023-03-26T07:16:31.621Z,13.07
2023-03-26T07:19:21.966Z,14.43
2023-03-26T07:21:50.038Z,25.15
2023-03-26T07:24:37.451Z,12.30
2023-03-26T07:27:53.448Z,18.73
2023-03-26T07:31:07.522Z,20.23
2023-03-26T07:34:06.465Z,15.90
2023-03-26T07:37:08.146Z,16.17
2023-03-26T07:40:19.954Z,17.88
2023-03-26T07:43:51.433Z,15.25
2023-03-26T07:46:37.408Z,14.93
2023-03-26T07:49:17.881Z,18.98
2023-03-26T07:52:03.829Z,17.17
2023-03-26T07:54:55.003Z,18.60
2023-03-26T07:57:52.950Z,18.98
2023-03-26T08:00:56.124Z,21.70
2023-03-26T08:03:46.496Z,17.77
2023-03-26T08:06:36.306Z,18.45
2023-03-26T08:09:57.946Z,20.80
2023-03-26T08:12:53.878Z,53.85
2023-03-26T08:18:51.742Z,24.40
2023-03-26T08:21:36.500Z,22.40
2023-03-26T08:27:25.892Z,64.07
2023-03-26T08:30:15.990Z,28.08
2023-03-26T08:33:05.035Z,63.63
2023-03-26T08:35:33.427Z,15.82
2023-03-26T08:38:00.816Z,22.08
2023-03-26T08:40:54.958Z,34.78
2023-03-26T08:43:22.178Z,20.00
2023-03-26T08:46:16.651Z,20.88
2023-03-26T08:48:54.909Z,17.58
2023-03-26T08:51:40.414Z,20.65
2023-03-26T08:54:48.713Z,17.85
2023-03-26T08:58:05.318Z,15.00
2023-03-26T09:00:57.504Z,16.00
2023-03-26T09:03:58.711Z,12.52
2023-03-26T09:06:48.343Z,16.42
2023-03-26T09:10:02.094Z,12.90
2023-03-26T09:13:18.384Z,18.02
2023-03-26T09:16:26.188Z,13.55
2023-03-26T09:19:14.390Z,14.35
2023-03-26T09:22:17.325Z,11.95
2023-03-26T09:25:19.968Z,9.95
2023-03-26T09:28:08.183Z,10.15
2023-03-26T09:31:02.582Z,10.52
2023-03-26T09:34:04.821Z,7.82
2023-03-26T09:36:57.463Z,21.40
2023-03-26T09:39:38.984Z,12.32
2023-03-26T09:42:54.915Z,11.13
2023-03-26T09:46:14.138Z,9.95
2023-03-26T09:49:22.829Z,10.18
2023-03-26T09:52:12.953Z,8.05
2023-03-26T09:55:02.103Z,9.05
2023-03-26T09:58:22.126Z,8.25
2023-03-26T10:01:40.685Z,9.07
2023-03-26T10:04:23.759Z,8.18
2023-03-26T10:07:24.805Z,7.85
2023-03-26T10:10:25.786Z,8.55
2023-03-26T10:13:16.642Z,10.05
2023-03-26T10:16:12.286Z,8.05
2023-03-26T10:18:57.892Z,7.13
2023-03-26T10:21:43.217Z,6.53
2023-03-26T10:24:16.241Z,6.75
2023-03-26T10:27:08.689Z,6.70
2023-03-26T10:30:22.808Z,7.43
2023-03-26T10:33:30.466Z,6.22
2023-03-26T10:36:34.314Z,4.65
2023-03-26T10:39:36.759Z,4.72
2023-03-26T10:42:58.454Z,4.40
2023-03-26T10:45:53.280Z,4.00
2023-03-26T10:49:04.322Z,3.80
2023-03-26T10:51:48.710Z,5.10
2023-03-26T10:54:30.970Z,4.65
2023-03-26T10:57:00.735Z,3.60
2023-03-26T10:59:27.914Z,3.83
2023-03-26T11:02:29.441Z,7.32
2023-03-26T11:05:26.420Z,6.68
2023-03-26T11:08:07.175Z,3.10
2023-03-26T11:10:42.835Z,6.25
2023-03-26T11:13:34.881Z,4.82
2023-03-26T11:16:27.682Z,7.18
2023-03-26T11:19:16.740Z,5.50
2023-03-26T11:22:32.424Z,7.32
2023-03-26T11:25:43.329Z,4.00
2023-03-26T11:32:11.645Z,6.68
2023-03-26T11:34:36.678Z,5.45
2023-03-26T11:34:42.946Z,6.47
2023-03-26T11:37:38.694Z,6.75
2023-03-26T11:40:20.352Z,5.85
2023-03-26T11:42:55.973Z,6.45
2023-03-26T11:45:29.696Z,5.80
2023-03-26T11:48:09.325Z,5.05
2023-03-26T11:50:47.995Z,5.45
2023-03-26T11:53:19.516Z,4.22
2023-03-26T11:55:58.633Z,3.25
2023-03-26T11:58:43.206Z,7.30
2023-03-26T12:01:19.115Z,3.85
2023-03-26T12:03:59.016Z,3.88
2023-03-26T12:06:28.919Z,3.53
2023-03-26T12:08:57.030Z,5.50
2023-03-26T12:11:34.619Z,5.90
2023-03-26T12:14:05.650Z,4.32
2023-03-26T12:16:34.527Z,5.15
2023-03-26T12:19:19.622Z,4.25
2023-03-26T12:21:52.918Z,3.40
2023-03-26T12:24:31.772Z,3.45
2023-03-26T12:27:33.190Z,4.38
2023-03-26T12:30:33.822Z,6.05
2023-03-26T12:33:08.817Z,4.75
2023-03-26T12:35:36.671Z,6.45
2023-03-26T12:38:35.778Z,4.85
2023-03-26T12:43:40.206Z,7.07
2023-03-26T12:44:49.338Z,4.70
2023-03-26T12:48:00.766Z,5.25
2023-03-26T12:50:34.680Z,3.08
2023-03-26T12:53:41.465Z,3.65
2023-03-26T12:56:38.778Z,5.03
2023-03-26T12:59:21.790Z,3.90
2023-03-26T13:02:22.639Z,3.53
2023-03-26T13:05:36.513Z,6.28
2023-03-26T13:08:20.280Z,4.25
2023-03-26T13:10:50.041Z,5.38
2023-03-26T13:13:36.362Z,4.05
2023-03-26T13:16:34.012Z,3.88
2023-03-26T13:19:16.103Z,4.93
2023-03-26T13:22:28.350Z,5.47
2023-03-26T13:25:34.751Z,6.38
2023-03-26T13:28:26.290Z,7.65
2023-03-26T13:31:28.082Z,5.57
2023-03-26T13:34:11.415Z,5.63
2023-03-26T13:37:12.799Z,9.43
2023-03-26T13:40:10.277Z,8.60
2023-03-26T13:43:25.702Z,9.70
2023-03-26T13:46:18.279Z,6.00
2023-03-26T13:48:59.898Z,5.95
2023-03-26T13:51:56.725Z,6.32
2023-03-26T13:54:32.471Z,3.08
2023-03-26T13:57:20.300Z,5.38
2023-03-26T14:00:17.272Z,7.25
2023-03-26T14:02:53.275Z,11.18
2023-03-26T14:05:35.479Z,10.77
2023-03-26T14:08:25.866Z,17.60
2023-03-26T14:11:06.342Z,18.05
2023-03-26T14:13:46.701Z,15.27
2023-03-26T14:16:24.057Z,21.20
2023-03-26T14:19:40.353Z,15.43
2023-03-26T14:22:25.038Z,24.83
2023-03-26T14:26:01.271Z,19.35
2023-03-26T14:29:24.289Z,16.10
2023-03-26T14:32:31.329Z,23.05
2023-03-26T14:35:21.039Z,15.15
2023-03-26T14:38:14.229Z,22.27
2023-03-26T14:40:58.088Z,21.33
2023-03-26T14:44:16.439Z,18.02
2023-03-26T14:46:57.839Z,16.38
2023-03-26T14:49:57.977Z,20.38
2023-03-26T14:52:47.824Z,17.48
2023-03-26T14:55:31.719Z,24.95
2023-03-26T14:58:35.963Z,19.90
2023-03-26T15:01:15.985Z,21.73
2023-03-26T15:04:39.420Z,14.90
2023-03-26T15:07:34.976Z,18.30
2023-03-26T15:11:16.511Z,18.73
2023-03-26T15:14:17.323Z,13.02
2023-03-26T15:17:31.622Z,14.82
2023-03-26T15:20:49.754Z,15.13
2023-03-26T15:23:19.587Z,21.23
2023-03-26T15:26:24.169Z,18.55
2023-03-26T15:29:15.468Z,11.77
2023-03-26T15:32:14.929Z,24.50
2023-03-26T15:35:46.130Z,14.80
2023-03-26T15:39:07.005Z,13.80
2023-03-26T15:42:05.251Z,12.90
2023-03-26T15:44:54.098Z,16.13
2023-03-26T15:47:37.300Z,12.70
2023-03-26T15:50:38.011Z,9.63
2023-03-26T15:53:42.340Z,14.82
2023-03-26T15:56:32.772Z,9.23
2023-03-26T15:59:37.272Z,13.75
2023-03-26T16:02:41.802Z,10.73
2023-03-26T16:06:09.217Z,7.47
2023-03-26T16:09:04.707Z,13.27
2023-03-26T16:11:58.720Z,13.15
2023-03-26T16:14:34.498Z,10.98
2023-03-26T16:17:06.385Z,13.52
2023-03-26T16:19:46.029Z,10.43
2023-03-26T16:22:42.933Z,11.32
2023-03-26T16:25:34.794Z,14.88
2023-03-26T16:28:10.749Z,13.80
2023-03-26T16:30:39.044Z,11.20
2023-03-26T16:33:21.166Z,12.45
2023-03-26T16:36:14.847Z,11.85
2023-03-26T16:39:16.612Z,12.25
2023-03-26T16:41:46.805Z,11.52
2023-03-26T16:44:53.243Z,14.25
2023-03-26T16:47:37.362Z,13.90
2023-03-26T16:50:34.150Z,16.40
2023-03-26T16:53:42.327Z,13.15
2023-03-26T16:56:54.416Z,10.15
2023-03-26T17:00:18.357Z,14.98
2023-03-26T17:03:12.925Z,9.93
2023-03-26T17:05:56.521Z,13.20
2023-03-26T17:08:48.397Z,9.98
2023-03-26T17:11:25.810Z,13.75
2023-03-26T17:14:24.788Z,12.93
2023-03-26T17:17:19.601Z,10.95
2023-03-26T17:20:19.180Z,15.90
2023-03-26T17:22:56.282Z,10.55
2023-03-26T17:25:39.895Z,15.52
2023-03-26T17:28:27.491Z,8.82
2023-03-26T17:31:03.345Z,10.60
2023-03-26T17:33:41.958Z,9.52
2023-03-26T17:36:12.037Z,9.38
2023-03-26T17:38:38.969Z,12.73
2023-03-26T17:41:09.222Z,13.65
2023-03-26T17:43:52.137Z,14.73
2023-03-26T17:46:22.191Z,11.02
2023-03-26T17:49:07.074Z,11.30
2023-03-26T17:54:34.005Z,10.52
2023-03-26T17:57:12.932Z,12.48
2023-03-26T17:59:43.115Z,8.48
2023-03-26T18:02:22.188Z,11.20
2023-03-26T18:04:55.483Z,9.32
2023-03-26T18:08:00.020Z,11.02
2023-03-26T18:10:42.056Z,14.75
2023-03-26T18:13:36.556Z,13.75
2023-03-26T18:16:14.903Z,9.13
2023-03-26T18:18:49.934Z,12.43
2023-03-26T18:21:35.935Z,12.27
2023-03-26T18:24:13.435Z,11.57
2023-03-26T18:26:49.526Z,15.40
2023-03-26T18:29:29.437Z,11.27
2023-03-26T18:32:00.876Z,12.48
2023-03-26T18:34:34.083Z,10.70
2023-03-26T18:37:18.734Z,9.05
2023-03-26T18:40:19.025Z,9.52
2023-03-26T18:42:53.133Z,9.57
2023-03-26T18:45:23.095Z,9.52
2023-03-26T18:47:56.345Z,6.25
2023-03-26T18:50:29.340Z,10.88
2023-03-26T18:53:00.339Z,12.80
2023-03-26T18:55:30.381Z,10.35
2023-03-26T18:57:57.785Z,10.80
2023-03-26T19:00:30.308Z,13.80
2023-03-26T19:03:05.130Z,11.13
2023-03-26T19:05:35.712Z,10.77
2023-03-26T19:08:06.315Z,9.05
2023-03-26T19:10:33.988Z,15.02
2023-03-26T19:13:04.028Z,7.68
2023-03-26T19:15:34.848Z,8.07
2023-03-26T19:18:14.042Z,11.25
2023-03-26T19:20:52.601Z,7.45
2023-03-26T19:23:34.602Z,11.18
2023-03-26T19:26:05.642Z,9.23
2023-03-26T19:28:54.147Z,14.60
2023-03-26T19:31:32.179Z,12.35
2023-03-26T19:34:33.671Z,8.68
2023-03-26T19:37:15.854Z,8.07
2023-03-26T19:39:47.724Z,14.55
2023-03-26T19:42:19.567Z,8.85
2023-03-26T19:44:47.823Z,8.73
2023-03-26T19:47:39.103Z,8.93
2023-03-26T19:50:33.096Z,8.77
2023-03-26T19:53:19.134Z,10.18
2023-03-26T19:55:59.854Z,8.55
2023-03-26T19:58:27.636Z,9.13
2023-03-26T20:00:56.231Z,11.82
2023-03-26T20:03:29.451Z,7.93
2023-03-26T20:05:56.571Z,8.15
2023-03-26T20:08:29.801Z,6.45
2023-03-26T20:10:58.170Z,12.68
2023-03-26T20:13:25.819Z,7.63
2023-03-26T20:16:07.526Z,12.48
2023-03-26T20:18:35.263Z,9.90
2023-03-26T20:21:09.883Z,11.65
2023-03-26T20:23:37.039Z,12.07
2023-03-26T20:26:04.065Z,10.90
2023-03-26T20:28:38.676Z,8.38
2023-03-26T20:31:19.403Z,9.68
2023-03-26T20:33:47.915Z,9.88
2023-03-26T20:36:34.037Z,14.05
2023-03-26T20:39:08.117Z,12.95
2023-03-26T20:41:43.174Z,13.27
2023-03-26T20:44:17.027Z,9.40
2023-03-26T20:46:46.032Z,8.68
2023-03-26T20:49:14.979Z,8.43
2023-03-26T20:51:42.247Z,11.15
2023-03-26T20:54:21.352Z,9.27
2023-03-26T20:56:49.588Z,10.27
2023-03-26T20:59:26.427Z,9.60
2023-03-26T21:01:56.858Z,6.65
2023-03-26T21:04:24.970Z,13.80
2023-03-26T21:06:55.362Z,10.07
2023-03-26T21:09:35.464Z,11.43
2023-03-26T21:12:08.738Z,7.70
2023-03-26T21:14:41.628Z,9.45
2023-03-26T21:17:19.531Z,10.32
2023-03-26T21:19:47.657Z,10.15
2023-03-26T21:22:54.745Z,8.50
2023-03-26T21:26:09.425Z,12.63
2023-03-26T21:28:47.925Z,11.15
2023-03-26T21:31:20.617Z,9.75
2023-03-26T21:33:49.394Z,8.57
2023-03-26T21:36:19.884Z,11.38
2023-03-26T21:38:47.420Z,12.30
2023-03-26T21:41:23.270Z,8.77
2023-03-26T21:43:51.442Z,12.73
2023-03-26T21:46:19.092Z,9.60
2023-03-26T21:48:46.522Z,9.80
2023-03-26T21:51:15.205Z,6.90
2023-03-26T21:53:42.982Z,9.63
2023-03-26T21:56:35.000Z,9.18
2023-03-26T21:59:19.973Z,10.07
2023-03-26T22:04:41.842Z,10.52
2023-03-26T22:07:17.980Z,11.70
2023-03-26T22:09:45.516Z,10.90
2023-03-26T22:12:13.405Z,9.10
2023-03-26T22:14:40.634Z,9.10
2023-03-26T22:17:07.591Z,8.32
2023-03-26T22:19:34.701Z,13.02
2023-03-26T22:22:02.644Z,9.63
2023-03-26T22:24:29.757Z,10.02
2023-03-26T22:26:56.720Z,7.80
2023-03-26T22:29:23.902Z,9.10
2023-03-26T22:31:51.318Z,9.90
2023-03-26T22:34:19.655Z,11.77
2023-03-26T22:36:46.958Z,8.32
2023-03-26T22:39:14.348Z,7.07
2023-03-26T22:41:41.531Z,5.50
2023-03-26T22:44:19.909Z,6.20
2023-03-26T22:46:51.143Z,10.65
2023-03-26T22:49:18.629Z,9.88
2023-03-26T22:51:45.957Z,7.55
2023-03-26T22:54:13.216Z,10.45
2023-03-26T22:56:40.546Z,11.88
2023-03-26T22:59:07.530Z,9.85
2023-03-26T23:01:34.904Z,9.48
2023-03-26T23:04:02.238Z,11.95
2023-03-26T23:06:29.636Z,11.55
2023-03-26T23:08:57.016Z,9.73
2023-03-26T23:11:24.288Z,12.70
2023-03-26T23:13:51.704Z,14.25
2023-03-26T23:16:21.439Z,10.98
2023-03-26T23:18:48.854Z,14.55
2023-03-26T23:21:19.696Z,11.70
2023-03-26T23:23:49.282Z,10.52
2023-03-26T23:26:16.670Z,8.00
2023-03-26T23:28:43.816Z,10.13
2023-03-26T23:31:13.047Z,12.02
2023-03-26T23:33:50.438Z,10.80
2023-03-26T23:36:20.151Z,15.95
2023-03-26T23:38:48.910Z,14.77
2023-03-26T23:41:21.538Z,7.65
2023-03-26T23:43:55.553Z,10.32
2023-03-26T23:46:30.181Z,12.18
2023-03-26T23:51:27.272Z,8.88
2023-03-26T23:53:54.295Z,10.50
2023-03-26T23:56:21.461Z,12.35
2023-03-26T23:58:49.011Z,9.52
